sensor_id;sensor_type;location;lat;lon;timestamp;temperature;humidity
45008;DHT22;30743;52.008;5.644;2023-04-21T00:00:54;12.40;99.90
45008;DHT22;30743;52.008;5.644;2023-04-21T00:03:20;12.60;99.90
45008;DHT22;30743;52.008;5.644;2023-04-21T00:05:50;12.60;99.90
45008;DHT22;30743;52.008;5.644;2023-04-21T00:08:17;12.60;99.90
45008;DHT22;30743;52.008;5.644;2023-04-21T00:10:43;12.50;99.90
45008;DHT22;30743;52.008;5.644;2023-04-21T00:13:09;12.60;99.90
45008;DHT22;30743;52.008;5.644;2023-04-21T00:15:34;12.60;99.90
45008;DHT22;30743;52.008;5.644;2023-04-21T00:18:00;12.50;99.90
45008;DHT22;30743;52.008;5.644;2023-04-21T00:20:26;12.40;99.90
45008;DHT22;30743;52.008;5.644;2023-04-21T00:22:58;12.40;99.90
45008;DHT22;30743;52.008;5.644;2023-04-21T00:25:24;12.30;99.90
45008;DHT22;30743;52.008;5.644;2023-04-21T00:27:50;12.30;99.90
45008;DHT22;30743;52.008;5.644;2023-04-21T00:30:16;12.20;99.90
45008;DHT22;30743;52.008;5.644;2023-04-21T00:32:41;12.10;99.90
45008;DHT22;30743;52.008;5.644;2023-04-21T00:35:07;12.00;99.90
45008;DHT22;30743;52.008;5.644;2023-04-21T00:37:33;12.00;99.90
45008;DHT22;30743;52.008;5.644;2023-04-21T00:39:59;12.00;99.90
45008;DHT22;30743;52.008;5.644;2023-04-21T00:42:24;12.00;99.90
45008;DHT22;30743;52.008;5.644;2023-04-21T00:44:50;11.90;99.90
45008;DHT22;30743;52.008;5.644;2023-04-21T00:47:17;11.70;99.90
45008;DHT22;30743;52.008;5.644;2023-04-21T00:49:43;11.70;99.90
45008;DHT22;30743;52.008;5.644;2023-04-21T00:52:09;11.50;99.90
45008;DHT22;30743;52.008;5.644;2023-04-21T00:54:35;11.60;99.90
45008;DHT22;30743;52.008;5.644;2023-04-21T00:57:01;11.60;99.90
45008;DHT22;30743;52.008;5.644;2023-04-21T00:59:28;11.70;99.90
45008;DHT22;30743;52.008;5.644;2023-04-21T01:01:54;11.70;99.90
45008;DHT22;30743;52.008;5.644;2023-04-21T01:04:19;11.80;99.90
45008;DHT22;30743;52.008;5.644;2023-04-21T01:06:45;11.80;99.90
45008;DHT22;30743;52.008;5.644;2023-04-21T01:09:11;11.80;99.90
45008;DHT22;30743;52.008;5.644;2023-04-21T01:11:37;12.00;99.90
45008;DHT22;30743;52.008;5.644;2023-04-21T01:14:03;11.90;99.90
45008;DHT22;30743;52.008;5.644;2023-04-21T01:16:29;11.80;99.90
45008;DHT22;30743;52.008;5.644;2023-04-21T01:18:57;11.70;99.90
45008;DHT22;30743;52.008;5.644;2023-04-21T01:21:23;11.70;99.90
45008;DHT22;30743;52.008;5.644;2023-04-21T01:23:49;11.70;99.90
45008;DHT22;30743;52.008;5.644;2023-04-21T01:26:21;11.80;99.90
45008;DHT22;30743;52.008;5.644;2023-04-21T01:28:47;11.70;99.90
45008;DHT22;30743;52.008;5.644;2023-04-21T01:31:14;11.80;99.90
45008;DHT22;30743;52.008;5.644;2023-04-21T01:33:40;11.90;99.90
45008;DHT22;30743;52.008;5.644;2023-04-21T01:36:07;12.00;99.90
45008;DHT22;30743;52.008;5.644;2023-04-21T01:38:32;12.20;99.90
45008;DHT22;30743;52.008;5.644;2023-04-21T01:40:58;12.60;99.90
45008;DHT22;30743;52.008;5.644;2023-04-21T01:43:24;12.80;99.90
45008;DHT22;30743;52.008;5.644;2023-04-21T01:45:50;12.90;99.90
45008;DHT22;30743;52.008;5.644;2023-04-21T01:48:15;12.80;99.90
45008;DHT22;30743;52.008;5.644;2023-04-21T01:50:41;12.80;99.90
45008;DHT22;30743;52.008;5.644;2023-04-21T01:53:07;13.00;99.90
45008;DHT22;30743;52.008;5.644;2023-04-21T01:55:32;13.20;99.90
45008;DHT22;30743;52.008;5.644;2023-04-21T01:57:58;13.40;99.90
45008;DHT22;30743;52.008;5.644;2023-04-21T02:00:24;13.60;99.90
45008;DHT22;30743;52.008;5.644;2023-04-21T02:02:50;13.70;99.90
45008;DHT22;30743;52.008;5.644;2023-04-21T02:05:15;13.80;99.90
45008;DHT22;30743;52.008;5.644;2023-04-21T02:07:41;14.00;99.90
45008;DHT22;30743;52.008;5.644;2023-04-21T02:10:07;14.20;99.90
45008;DHT22;30743;52.008;5.644;2023-04-21T02:12:32;14.20;99.90
45008;DHT22;30743;52.008;5.644;2023-04-21T02:14:58;14.20;99.90
45008;DHT22;30743;52.008;5.644;2023-04-21T02:17:23;14.10;99.90
45008;DHT22;30743;52.008;5.644;2023-04-21T02:19:49;14.10;99.90
45008;DHT22;30743;52.008;5.644;2023-04-21T02:22:14;14.10;99.90
45008;DHT22;30743;52.008;5.644;2023-04-21T02:24:40;14.10;99.90
45008;DHT22;30743;52.008;5.644;2023-04-21T02:27:06;14.10;99.90
45008;DHT22;30743;52.008;5.644;2023-04-21T02:29:31;13.90;99.90
45008;DHT22;30743;52.008;5.644;2023-04-21T02:31:57;13.80;99.90
45008;DHT22;30743;52.008;5.644;2023-04-21T02:34:22;13.80;99.90
45008;DHT22;30743;52.008;5.644;2023-04-21T02:36:48;13.70;99.90
45008;DHT22;30743;52.008;5.644;2023-04-21T02:39:13;13.60;99.90
45008;DHT22;30743;52.008;5.644;2023-04-21T02:41:39;13.50;99.90
45008;DHT22;30743;52.008;5.644;2023-04-21T02:44:05;13.40;99.90
45008;DHT22;30743;52.008;5.644;2023-04-21T02:46:30;13.40;99.90
45008;DHT22;30743;52.008;5.644;2023-04-21T02:48:56;13.30;99.90
45008;DHT22;30743;52.008;5.644;2023-04-21T02:51:22;13.10;99.90
45008;DHT22;30743;52.008;5.644;2023-04-21T02:53:47;13.10;99.90
45008;DHT22;30743;52.008;5.644;2023-04-21T02:56:13;13.30;99.90
45008;DHT22;30743;52.008;5.644;2023-04-21T02:58:38;13.60;99.90
45008;DHT22;30743;52.008;5.644;2023-04-21T03:01:04;13.80;99.90
45008;DHT22;30743;52.008;5.644;2023-04-21T03:03:31;13.90;99.90
45008;DHT22;30743;52.008;5.644;2023-04-21T03:06:01;14.10;99.90
45008;DHT22;30743;52.008;5.644;2023-04-21T03:08:27;14.20;99.90
45008;DHT22;30743;52.008;5.644;2023-04-21T03:10:53;14.10;99.90
45008;DHT22;30743;52.008;5.644;2023-04-21T03:13:19;14.20;99.90
45008;DHT22;30743;52.008;5.644;2023-04-21T03:15:44;14.10;99.90
45008;DHT22;30743;52.008;5.644;2023-04-21T03:18:10;14.00;99.90
45008;DHT22;30743;52.008;5.644;2023-04-21T03:20:36;14.10;99.90
45008;DHT22;30743;52.008;5.644;2023-04-21T03:23:01;14.10;99.90
45008;DHT22;30743;52.008;5.644;2023-04-21T03:25:27;14.30;99.90
45008;DHT22;30743;52.008;5.644;2023-04-21T03:27:53;14.20;99.90
45008;DHT22;30743;52.008;5.644;2023-04-21T03:30:19;14.00;99.90
45008;DHT22;30743;52.008;5.644;2023-04-21T03:32:45;13.80;99.90
45008;DHT22;30743;52.008;5.644;2023-04-21T03:35:10;13.70;99.90
45008;DHT22;30743;52.008;5.644;2023-04-21T03:37:36;13.60;99.90
45008;DHT22;30743;52.008;5.644;2023-04-21T03:40:03;13.40;99.90
45008;DHT22;30743;52.008;5.644;2023-04-21T03:42:30;13.30;99.90
45008;DHT22;30743;52.008;5.644;2023-04-21T03:44:59;13.20;99.90
45008;DHT22;30743;52.008;5.644;2023-04-21T03:47:25;13.20;99.90
45008;DHT22;30743;52.008;5.644;2023-04-21T03:49:50;13.00;99.90
45008;DHT22;30743;52.008;5.644;2023-04-21T03:52:16;12.90;99.90
45008;DHT22;30743;52.008;5.644;2023-04-21T03:54:41;12.90;99.90
45008;DHT22;30743;52.008;5.644;2023-04-21T03:57:07;13.10;99.90
45008;DHT22;30743;52.008;5.644;2023-04-21T03:59:32;12.90;99.90
45008;DHT22;30743;52.008;5.644;2023-04-21T04:01:58;12.90;99.90
45008;DHT22;30743;52.008;5.644;2023-04-21T04:04:23;12.80;99.90
45008;DHT22;30743;52.008;5.644;2023-04-21T04:06:49;12.70;99.90
45008;DHT22;30743;52.008;5.644;2023-04-21T04:09:14;12.60;99.90
45008;DHT22;30743;52.008;5.644;2023-04-21T04:11:40;12.40;99.90
45008;DHT22;30743;52.008;5.644;2023-04-21T04:14:05;12.10;99.90
45008;DHT22;30743;52.008;5.644;2023-04-21T04:16:35;12.10;99.90
45008;DHT22;30743;52.008;5.644;2023-04-21T04:19:01;12.10;99.90
45008;DHT22;30743;52.008;5.644;2023-04-21T04:21:28;12.10;99.90
45008;DHT22;30743;52.008;5.644;2023-04-21T04:23:53;12.10;99.90
45008;DHT22;30743;52.008;5.644;2023-04-21T04:26:19;12.10;99.90
45008;DHT22;30743;52.008;5.644;2023-04-21T04:28:47;12.00;99.90
45008;DHT22;30743;52.008;5.644;2023-04-21T04:31:12;12.00;99.90
45008;DHT22;30743;52.008;5.644;2023-04-21T04:33:42;12.00;99.90
45008;DHT22;30743;52.008;5.644;2023-04-21T04:36:08;12.00;99.90
45008;DHT22;30743;52.008;5.644;2023-04-21T04:38:36;12.00;99.90
45008;DHT22;30743;52.008;5.644;2023-04-21T04:41:02;12.20;99.90
45008;DHT22;30743;52.008;5.644;2023-04-21T04:43:28;12.40;99.90
45008;DHT22;30743;52.008;5.644;2023-04-21T04:45:53;12.40;99.90
45008;DHT22;30743;52.008;5.644;2023-04-21T04:48:19;12.40;99.90
45008;DHT22;30743;52.008;5.644;2023-04-21T04:50:45;12.60;99.90
45008;DHT22;30743;52.008;5.644;2023-04-21T04:53:10;12.70;99.90
45008;DHT22;30743;52.008;5.644;2023-04-21T04:55:36;12.80;99.90
45008;DHT22;30743;52.008;5.644;2023-04-21T04:58:02;12.80;99.90
45008;DHT22;30743;52.008;5.644;2023-04-21T05:00:27;12.80;99.90
45008;DHT22;30743;52.008;5.644;2023-04-21T05:02:53;12.80;99.90
45008;DHT22;30743;52.008;5.644;2023-04-21T05:05:20;12.80;99.90
45008;DHT22;30743;52.008;5.644;2023-04-21T05:07:46;12.80;99.90
45008;DHT22;30743;52.008;5.644;2023-04-21T05:10:12;12.60;99.90
45008;DHT22;30743;52.008;5.644;2023-04-21T05:12:38;12.50;99.90
45008;DHT22;30743;52.008;5.644;2023-04-21T05:15:04;12.60;99.90
45008;DHT22;30743;52.008;5.644;2023-04-21T05:17:32;12.60;99.90
45008;DHT22;30743;52.008;5.644;2023-04-21T05:19:58;12.40;99.90
45008;DHT22;30743;52.008;5.644;2023-04-21T05:22:24;12.40;99.90
45008;DHT22;30743;52.008;5.644;2023-04-21T05:24:50;12.40;99.90
45008;DHT22;30743;52.008;5.644;2023-04-21T05:27:16;12.50;99.90
45008;DHT22;30743;52.008;5.644;2023-04-21T05:29:41;12.60;99.90
45008;DHT22;30743;52.008;5.644;2023-04-21T05:32:07;12.80;99.90
45008;DHT22;30743;52.008;5.644;2023-04-21T05:34:33;12.90;99.90
45008;DHT22;30743;52.008;5.644;2023-04-21T05:36:59;13.10;99.90
45008;DHT22;30743;52.008;5.644;2023-04-21T05:39:26;13.00;99.90
45008;DHT22;30743;52.008;5.644;2023-04-21T05:41:52;12.90;99.90
45008;DHT22;30743;52.008;5.644;2023-04-21T05:44:17;12.80;99.90
45008;DHT22;30743;52.008;5.644;2023-04-21T05:46:43;12.70;99.90
45008;DHT22;30743;52.008;5.644;2023-04-21T05:49:08;12.80;99.90
45008;DHT22;30743;52.008;5.644;2023-04-21T05:51:34;12.90;99.90
45008;DHT22;30743;52.008;5.644;2023-04-21T05:53:59;13.10;99.90
45008;DHT22;30743;52.008;5.644;2023-04-21T05:56:25;13.30;99.90
45008;DHT22;30743;52.008;5.644;2023-04-21T05:58:51;13.40;99.90
45008;DHT22;30743;52.008;5.644;2023-04-21T06:01:16;13.50;99.90
45008;DHT22;30743;52.008;5.644;2023-04-21T06:03:42;13.40;99.90
45008;DHT22;30743;52.008;5.644;2023-04-21T06:06:07;13.60;99.90
45008;DHT22;30743;52.008;5.644;2023-04-21T06:08:34;13.70;99.90
45008;DHT22;30743;52.008;5.644;2023-04-21T06:11:00;14.00;99.90
45008;DHT22;30743;52.008;5.644;2023-04-21T06:13:25;14.10;99.90
45008;DHT22;30743;52.008;5.644;2023-04-21T06:15:52;14.10;99.90
45008;DHT22;30743;52.008;5.644;2023-04-21T06:18:18;14.20;99.90
45008;DHT22;30743;52.008;5.644;2023-04-21T06:20:49;14.20;99.90
45008;DHT22;30743;52.008;5.644;2023-04-21T06:23:16;14.20;99.90
45008;DHT22;30743;52.008;5.644;2023-04-21T06:25:41;14.40;99.90
45008;DHT22;30743;52.008;5.644;2023-04-21T06:28:07;14.60;99.90
45008;DHT22;30743;52.008;5.644;2023-04-21T06:30:32;14.60;99.90
45008;DHT22;30743;52.008;5.644;2023-04-21T06:32:58;14.50;99.90
45008;DHT22;30743;52.008;5.644;2023-04-21T06:35:23;14.60;99.90
45008;DHT22;30743;52.008;5.644;2023-04-21T06:37:49;14.80;99.90
45008;DHT22;30743;52.008;5.644;2023-04-21T06:40:14;15.00;99.90
45008;DHT22;30743;52.008;5.644;2023-04-21T06:42:40;15.10;99.90
45008;DHT22;30743;52.008;5.644;2023-04-21T06:45:06;15.30;99.90
45008;DHT22;30743;52.008;5.644;2023-04-21T06:47:32;15.40;99.90
45008;DHT22;30743;52.008;5.644;2023-04-21T06:49:57;15.20;99.90
45008;DHT22;30743;52.008;5.644;2023-04-21T06:52:23;15.30;99.90
45008;DHT22;30743;52.008;5.644;2023-04-21T06:54:48;15.30;99.90
45008;DHT22;30743;52.008;5.644;2023-04-21T06:57:14;15.40;99.90
45008;DHT22;30743;52.008;5.644;2023-04-21T06:59:41;15.50;99.90
45008;DHT22;30743;52.008;5.644;2023-04-21T07:02:07;15.70;99.90
45008;DHT22;30743;52.008;5.644;2023-04-21T07:04:32;15.90;99.90
45008;DHT22;30743;52.008;5.644;2023-04-21T07:06:59;16.00;99.90
45008;DHT22;30743;52.008;5.644;2023-04-21T07:09:25;16.00;99.90
45008;DHT22;30743;52.008;5.644;2023-04-21T07:11:53;16.00;99.90
45008;DHT22;30743;52.008;5.644;2023-04-21T07:14:19;16.20;99.90
45008;DHT22;30743;52.008;5.644;2023-04-21T07:16:44;16.30;99.90
45008;DHT22;30743;52.008;5.644;2023-04-21T07:19:10;16.40;99.90
45008;DHT22;30743;52.008;5.644;2023-04-21T07:21:35;16.60;99.90
45008;DHT22;30743;52.008;5.644;2023-04-21T07:24:01;16.80;99.90
45008;DHT22;30743;52.008;5.644;2023-04-21T07:26:27;16.90;99.90
45008;DHT22;30743;52.008;5.644;2023-04-21T07:28:53;17.20;99.90
45008;DHT22;30743;52.008;5.644;2023-04-21T07:31:20;17.40;99.90
45008;DHT22;30743;52.008;5.644;2023-04-21T07:33:45;17.50;99.90
45008;DHT22;30743;52.008;5.644;2023-04-21T07:36:11;17.90;99.90
45008;DHT22;30743;52.008;5.644;2023-04-21T07:38:37;18.20;99.90
45008;DHT22;30743;52.008;5.644;2023-04-21T07:41:03;18.20;99.90
45008;DHT22;30743;52.008;5.644;2023-04-21T07:43:29;18.40;99.90
45008;DHT22;30743;52.008;5.644;2023-04-21T07:45:56;18.30;99.90
45008;DHT22;30743;52.008;5.644;2023-04-21T07:48:21;18.30;99.90
45008;DHT22;30743;52.008;5.644;2023-04-21T07:50:47;18.30;99.90
45008;DHT22;30743;52.008;5.644;2023-04-21T07:53:14;18.40;99.90
45008;DHT22;30743;52.008;5.644;2023-04-21T07:55:40;18.40;99.90
45008;DHT22;30743;52.008;5.644;2023-04-21T07:58:06;18.40;99.90
45008;DHT22;30743;52.008;5.644;2023-04-21T08:00:32;18.10;99.90
45008;DHT22;30743;52.008;5.644;2023-04-21T08:02:57;18.10;99.90
45008;DHT22;30743;52.008;5.644;2023-04-21T08:05:23;18.00;99.90
45008;DHT22;30743;52.008;5.644;2023-04-21T08:07:49;17.90;99.90
45008;DHT22;30743;52.008;5.644;2023-04-21T08:10:14;18.20;99.90
45008;DHT22;30743;52.008;5.644;2023-04-21T08:12:41;18.10;99.90
45008;DHT22;30743;52.008;5.644;2023-04-21T08:15:07;18.00;99.90
45008;DHT22;30743;52.008;5.644;2023-04-21T08:17:33;18.20;99.90
45008;DHT22;30743;52.008;5.644;2023-04-21T08:19:59;18.30;99.90
45008;DHT22;30743;52.008;5.644;2023-04-21T08:22:24;18.30;99.90
45008;DHT22;30743;52.008;5.644;2023-04-21T08:24:50;18.30;99.90
45008;DHT22;30743;52.008;5.644;2023-04-21T08:27:15;18.20;99.90
45008;DHT22;30743;52.008;5.644;2023-04-21T08:29:41;18.20;99.90
45008;DHT22;30743;52.008;5.644;2023-04-21T08:32:06;18.40;99.90
45008;DHT22;30743;52.008;5.644;2023-04-21T08:34:32;18.50;99.90
45008;DHT22;30743;52.008;5.644;2023-04-21T08:36:58;18.60;99.90
45008;DHT22;30743;52.008;5.644;2023-04-21T08:39:23;18.80;99.90
45008;DHT22;30743;52.008;5.644;2023-04-21T08:41:49;18.80;99.90
45008;DHT22;30743;52.008;5.644;2023-04-21T08:44:15;19.20;99.90
45008;DHT22;30743;52.008;5.644;2023-04-21T08:46:44;18.80;99.90
45008;DHT22;30743;52.008;5.644;2023-04-21T08:49:11;18.90;99.90
45008;DHT22;30743;52.008;5.644;2023-04-21T08:51:37;18.80;99.90
45008;DHT22;30743;52.008;5.644;2023-04-21T08:54:02;18.60;99.90
45008;DHT22;30743;52.008;5.644;2023-04-21T08:56:28;18.80;99.90
45008;DHT22;30743;52.008;5.644;2023-04-21T08:58:54;19.10;99.90
45008;DHT22;30743;52.008;5.644;2023-04-21T09:01:19;19.30;99.90
45008;DHT22;30743;52.008;5.644;2023-04-21T09:03:45;19.40;99.90
45008;DHT22;30743;52.008;5.644;2023-04-21T09:06:11;19.50;99.90
45008;DHT22;30743;52.008;5.644;2023-04-21T09:08:40;19.40;99.90
45008;DHT22;30743;52.008;5.644;2023-04-21T09:11:06;19.30;99.90
45008;DHT22;30743;52.008;5.644;2023-04-21T09:13:33;19.40;99.90
45008;DHT22;30743;52.008;5.644;2023-04-21T09:16:01;19.30;99.90
45008;DHT22;30743;52.008;5.644;2023-04-21T09:18:29;19.70;99.90
45008;DHT22;30743;52.008;5.644;2023-04-21T09:21:09;19.90;99.90
45008;DHT22;30743;52.008;5.644;2023-04-21T09:23:48;20.00;99.90
45008;DHT22;30743;52.008;5.644;2023-04-21T09:26:15;19.90;99.90
45008;DHT22;30743;52.008;5.644;2023-04-21T09:28:45;20.00;99.90
45008;DHT22;30743;52.008;5.644;2023-04-21T09:33:47;19.80;99.90
45008;DHT22;30743;52.008;5.644;2023-04-21T09:36:23;20.00;99.90
45008;DHT22;30743;52.008;5.644;2023-04-21T09:38:59;20.00;99.90
45008;DHT22;30743;52.008;5.644;2023-04-21T09:41:26;19.90;99.90
45008;DHT22;30743;52.008;5.644;2023-04-21T09:43:51;19.80;99.90
45008;DHT22;30743;52.008;5.644;2023-04-21T09:46:18;19.70;99.90
45008;DHT22;30743;52.008;5.644;2023-04-21T09:48:44;19.60;99.90
45008;DHT22;30743;52.008;5.644;2023-04-21T09:51:11;19.60;99.90
45008;DHT22;30743;52.008;5.644;2023-04-21T09:53:39;19.90;99.90
45008;DHT22;30743;52.008;5.644;2023-04-21T09:56:10;20.10;99.90
45008;DHT22;30743;52.008;5.644;2023-04-21T09:58:43;20.40;99.90
45008;DHT22;30743;52.008;5.644;2023-04-21T10:01:11;20.60;99.90
45008;DHT22;30743;52.008;5.644;2023-04-21T10:03:38;20.70;99.90
45008;DHT22;30743;52.008;5.644;2023-04-21T10:06:05;20.80;99.90
45008;DHT22;30743;52.008;5.644;2023-04-21T10:08:31;20.70;99.90
45008;DHT22;30743;52.008;5.644;2023-04-21T10:10:57;20.70;99.90
45008;DHT22;30743;52.008;5.644;2023-04-21T10:13:24;20.70;99.90
45008;DHT22;30743;52.008;5.644;2023-04-21T10:16:09;20.90;99.90
45008;DHT22;30743;52.008;5.644;2023-04-21T10:18:42;20.90;99.90
45008;DHT22;30743;52.008;5.644;2023-04-21T10:21:10;21.00;99.90
45008;DHT22;30743;52.008;5.644;2023-04-21T10:23:40;20.90;99.90
45008;DHT22;30743;52.008;5.644;2023-04-21T10:28:59;20.70;99.90
45008;DHT22;30743;52.008;5.644;2023-04-21T10:39:29;20.40;99.90
45008;DHT22;30743;52.008;5.644;2023-04-21T10:41:56;20.40;99.90
45008;DHT22;30743;52.008;5.644;2023-04-21T10:44:23;19.80;99.90
45008;DHT22;30743;52.008;5.644;2023-04-21T10:46:52;19.90;99.90
45008;DHT22;30743;52.008;5.644;2023-04-21T10:49:25;20.10;99.90
45008;DHT22;30743;52.008;5.644;2023-04-21T10:54:23;20.50;99.90
45008;DHT22;30743;52.008;5.644;2023-04-21T10:56:53;20.30;99.90
45008;DHT22;30743;52.008;5.644;2023-04-21T10:59:20;20.20;99.90
45008;DHT22;30743;52.008;5.644;2023-04-21T11:01:46;20.50;99.90
45008;DHT22;30743;52.008;5.644;2023-04-21T11:04:19;20.70;99.90
45008;DHT22;30743;52.008;5.644;2023-04-21T11:07:08;20.90;99.90
45008;DHT22;30743;52.008;5.644;2023-04-21T11:09:34;20.90;99.90
45008;DHT22;30743;52.008;5.644;2023-04-21T11:12:02;21.00;99.90
45008;DHT22;30743;52.008;5.644;2023-04-21T11:14:29;20.90;99.90
45008;DHT22;30743;52.008;5.644;2023-04-21T11:16:55;20.80;99.90
45008;DHT22;30743;52.008;5.644;2023-04-21T11:19:20;20.90;99.90
45008;DHT22;30743;52.008;5.644;2023-04-21T11:21:48;20.90;99.90
45008;DHT22;30743;52.008;5.644;2023-04-21T11:24:14;21.00;99.90
45008;DHT22;30743;52.008;5.644;2023-04-21T11:26:40;20.90;99.90
45008;DHT22;30743;52.008;5.644;2023-04-21T11:29:08;20.80;99.90
45008;DHT22;30743;52.008;5.644;2023-04-21T11:31:35;21.10;99.90
45008;DHT22;30743;52.008;5.644;2023-04-21T11:34:02;21.00;99.90
45008;DHT22;30743;52.008;5.644;2023-04-21T11:36:41;20.90;99.90
45008;DHT22;30743;52.008;5.644;2023-04-21T11:39:08;21.00;99.90
45008;DHT22;30743;52.008;5.644;2023-04-21T11:41:37;21.30;99.90
45008;DHT22;30743;52.008;5.644;2023-04-21T11:44:03;21.50;99.90
45008;DHT22;30743;52.008;5.644;2023-04-21T11:46:29;21.60;99.90
45008;DHT22;30743;52.008;5.644;2023-04-21T11:49:05;21.30;99.90
45008;DHT22;30743;52.008;5.644;2023-04-21T11:54:00;21.20;99.90
45008;DHT22;30743;52.008;5.644;2023-04-21T11:56:26;21.50;99.90
45008;DHT22;30743;52.008;5.644;2023-04-21T11:58:51;21.70;99.90
45008;DHT22;30743;52.008;5.644;2023-04-21T12:01:18;22.00;99.90
45008;DHT22;30743;52.008;5.644;2023-04-21T12:03:52;22.30;99.90
45008;DHT22;30743;52.008;5.644;2023-04-21T12:06:26;21.80;99.90
45008;DHT22;30743;52.008;5.644;2023-04-21T12:08:56;22.20;99.90
45008;DHT22;30743;52.008;5.644;2023-04-21T12:11:26;22.30;99.90
45008;DHT22;30743;52.008;5.644;2023-04-21T12:13:52;22.00;99.90
45008;DHT22;30743;52.008;5.644;2023-04-21T12:16:18;21.50;99.90
45008;DHT22;30743;52.008;5.644;2023-04-21T12:18:43;21.50;99.90
45008;DHT22;30743;52.008;5.644;2023-04-21T12:21:13;21.70;99.90
45008;DHT22;30743;52.008;5.644;2023-04-21T12:23:39;21.40;99.90
45008;DHT22;30743;52.008;5.644;2023-04-21T12:26:04;20.60;99.90
45008;DHT22;30743;52.008;5.644;2023-04-21T12:28:30;20.50;99.90
45008;DHT22;30743;52.008;5.644;2023-04-21T12:30:55;20.70;99.90
45008;DHT22;30743;52.008;5.644;2023-04-21T12:33:21;21.00;99.90
45008;DHT22;30743;52.008;5.644;2023-04-21T12:35:47;21.10;99.90
45008;DHT22;30743;52.008;5.644;2023-04-21T12:38:12;21.20;99.90
45008;DHT22;30743;52.008;5.644;2023-04-21T12:40:37;21.10;99.90
45008;DHT22;30743;52.008;5.644;2023-04-21T12:43:03;21.10;99.90
45008;DHT22;30743;52.008;5.644;2023-04-21T12:45:29;20.70;99.90
45008;DHT22;30743;52.008;5.644;2023-04-21T12:47:56;20.90;99.90
45008;DHT22;30743;52.008;5.644;2023-04-21T12:50:22;20.80;99.90
45008;DHT22;30743;52.008;5.644;2023-04-21T12:52:48;21.10;99.90
45008;DHT22;30743;52.008;5.644;2023-04-21T12:55:16;21.00;99.90
45008;DHT22;30743;52.008;5.644;2023-04-21T12:57:42;21.10;99.90
45008;DHT22;30743;52.008;5.644;2023-04-21T13:00:08;21.00;99.90
45008;DHT22;30743;52.008;5.644;2023-04-21T13:02:36;20.80;99.90
45008;DHT22;30743;52.008;5.644;2023-04-21T13:05:02;20.80;99.90
45008;DHT22;30743;52.008;5.644;2023-04-21T13:07:33;21.00;99.90
45008;DHT22;30743;52.008;5.644;2023-04-21T13:09:58;20.60;99.90
45008;DHT22;30743;52.008;5.644;2023-04-21T13:12:24;21.00;99.90
45008;DHT22;30743;52.008;5.644;2023-04-21T13:14:50;21.00;99.90
45008;DHT22;30743;52.008;5.644;2023-04-21T13:17:15;21.30;99.90
45008;DHT22;30743;52.008;5.644;2023-04-21T13:19:41;21.30;99.90
45008;DHT22;30743;52.008;5.644;2023-04-21T13:22:07;21.40;99.90
45008;DHT22;30743;52.008;5.644;2023-04-21T13:24:32;21.50;99.90
45008;DHT22;30743;52.008;5.644;2023-04-21T13:26:59;21.50;99.90
45008;DHT22;30743;52.008;5.644;2023-04-21T13:29:26;21.50;99.90
45008;DHT22;30743;52.008;5.644;2023-04-21T13:31:57;21.30;99.90
45008;DHT22;30743;52.008;5.644;2023-04-21T13:34:22;21.40;99.90
45008;DHT22;30743;52.008;5.644;2023-04-21T13:36:48;21.40;99.90
45008;DHT22;30743;52.008;5.644;2023-04-21T13:39:13;22.00;99.90
45008;DHT22;30743;52.008;5.644;2023-04-21T13:41:40;22.20;99.90
45008;DHT22;30743;52.008;5.644;2023-04-21T13:44:05;22.50;99.90
45008;DHT22;30743;52.008;5.644;2023-04-21T13:46:31;22.90;99.90
45008;DHT22;30743;52.008;5.644;2023-04-21T13:48:57;23.00;99.90
45008;DHT22;30743;52.008;5.644;2023-04-21T13:51:23;23.10;99.90
45008;DHT22;30743;52.008;5.644;2023-04-21T13:53:49;23.30;99.90
45008;DHT22;30743;52.008;5.644;2023-04-21T13:56:15;23.40;99.90
45008;DHT22;30743;52.008;5.644;2023-04-21T13:58:41;23.50;99.90
45008;DHT22;30743;52.008;5.644;2023-04-21T14:01:07;23.40;99.90
45008;DHT22;30743;52.008;5.644;2023-04-21T14:03:33;23.60;99.90
45008;DHT22;30743;52.008;5.644;2023-04-21T14:05:58;23.60;99.90
45008;DHT22;30743;52.008;5.644;2023-04-21T14:08:24;23.80;99.90
45008;DHT22;30743;52.008;5.644;2023-04-21T14:10:49;23.90;99.90
45008;DHT22;30743;52.008;5.644;2023-04-21T14:13:15;23.80;99.90
45008;DHT22;30743;52.008;5.644;2023-04-21T14:15:41;23.80;99.90
45008;DHT22;30743;52.008;5.644;2023-04-21T14:18:07;23.80;99.90
45008;DHT22;30743;52.008;5.644;2023-04-21T14:20:32;23.40;99.90
45008;DHT22;30743;52.008;5.644;2023-04-21T14:22:58;23.80;99.90
45008;DHT22;30743;52.008;5.644;2023-04-21T14:25:24;22.80;99.90
45008;DHT22;30743;52.008;5.644;2023-04-21T14:27:49;22.30;99.90
45008;DHT22;30743;52.008;5.644;2023-04-21T14:30:15;22.00;99.90
45008;DHT22;30743;52.008;5.644;2023-04-21T14:32:40;22.00;99.90
45008;DHT22;30743;52.008;5.644;2023-04-21T14:35:10;22.20;99.90
45008;DHT22;30743;52.008;5.644;2023-04-21T14:37:36;22.30;99.90
45008;DHT22;30743;52.008;5.644;2023-04-21T14:40:01;22.60;99.90
45008;DHT22;30743;52.008;5.644;2023-04-21T14:42:28;22.70;99.90
45008;DHT22;30743;52.008;5.644;2023-04-21T14:44:53;22.60;99.90
45008;DHT22;30743;52.008;5.644;2023-04-21T14:47:20;22.30;99.90
45008;DHT22;30743;52.008;5.644;2023-04-21T14:49:45;21.90;99.90
45008;DHT22;30743;52.008;5.644;2023-04-21T14:52:12;21.80;99.90
45008;DHT22;30743;52.008;5.644;2023-04-21T14:54:37;21.60;99.90
45008;DHT22;30743;52.008;5.644;2023-04-21T14:57:03;21.70;99.90
45008;DHT22;30743;52.008;5.644;2023-04-21T14:59:28;21.70;99.90
45008;DHT22;30743;52.008;5.644;2023-04-21T15:01:54;22.20;99.90
45008;DHT22;30743;52.008;5.644;2023-04-21T15:04:20;22.30;99.90
45008;DHT22;30743;52.008;5.644;2023-04-21T15:06:46;22.40;99.90
45008;DHT22;30743;52.008;5.644;2023-04-21T15:09:11;22.60;99.90
45008;DHT22;30743;52.008;5.644;2023-04-21T15:11:38;22.70;99.90
45008;DHT22;30743;52.008;5.644;2023-04-21T15:14:03;22.60;99.90
45008;DHT22;30743;52.008;5.644;2023-04-21T15:16:29;22.60;99.90
45008;DHT22;30743;52.008;5.644;2023-04-21T15:18:55;22.70;99.90
45008;DHT22;30743;52.008;5.644;2023-04-21T15:21:20;22.90;99.90
45008;DHT22;30743;52.008;5.644;2023-04-21T15:23:46;23.00;99.90
45008;DHT22;30743;52.008;5.644;2023-04-21T15:26:11;22.80;99.90
45008;DHT22;30743;52.008;5.644;2023-04-21T15:28:37;22.70;99.90
45008;DHT22;30743;52.008;5.644;2023-04-21T15:31:04;22.90;99.90
45008;DHT22;30743;52.008;5.644;2023-04-21T15:33:30;23.10;99.90
45008;DHT22;30743;52.008;5.644;2023-04-21T15:35:55;23.10;99.90
45008;DHT22;30743;52.008;5.644;2023-04-21T15:38:21;23.80;99.90
45008;DHT22;30743;52.008;5.644;2023-04-21T15:40:47;23.00;99.90
45008;DHT22;30743;52.008;5.644;2023-04-21T15:43:12;22.70;99.90